Esquina — 2DOU6 — position and weather

sailwx.info

Track history (hours):
 
Tides and Currents Weather Stations Pressure Air Temp Water Temp Dewpoint Dewpoint Depression Visibility Wind Speed Wind Dir Waves Ship Positions

Esquina

Last reported at 2017-Mar-23 11:33 UTC. Time now 2017-Mar-23 12:17 UTC.
Position N 47°40' W 003°20'.

Type: Other ship. MMSI: 235080801.

Date/timePositionNaut miles runAvg speedWind from/ knotsBaromVisibWave heightAir tempDewpointWater temp
2017-Mar-23 11:33N 47°40' W 003°20'3 0.1
2017-Mar-22 17:07N 47°43' W 003°21'2 3.5
2017-Mar-22 16:33N 47°45' W 003°21'3 2.8
2017-Mar-22 15:33N 47°42' W 003°22'6 6.2
2017-Mar-22 14:33N 47°36' W 003°20'8 7.6
2017-Mar-22 13:32N 47°44' W 003°22'7 6.7
2017-Mar-22 12:33N 47°37' W 003°20'5 5.3
2017-Mar-22 11:33N 47°42' W 003°22'10 9.8
2017-Mar-22 10:33N 47°35' W 003°13'2 1.8
2017-Mar-22 09:31N 47°37' W 003°12'0 0.0
2017-Mar-22 08:31N 47°37' W 003°12'2 1.7
2017-Mar-22 07:33N 47°35' W 003°11'7 7.3
2017-Mar-22 06:33N 47°39' W 003°20'4 0.3
2017-Mar-21 16:33N 47°43' W 003°22'1110.9
2017-Mar-21 15:33N 47°34' W 003°12'2 2.1
2017-Mar-21 14:32N 47°37' W 003°12'0 0.0
2017-Mar-21 13:33N 47°37' W 003°12'0 0.1
2017-Mar-21 12:32N 47°37' W 003°12'1 0.8
2017-Mar-21 11:33N 47°36' W 003°12'2 2.1
2017-Mar-21 10:33N 47°38' W 003°13'3 2.7
2017-Mar-21 09:33N 47°35' W 003°14'4 3.7
2017-Mar-21 08:33N 47°36' W 003°19'3 2.7
2017-Mar-21 07:33N 47°38' W 003°21'6 6.3
2017-Mar-21 06:33N 47°45' W 003°21'2 0.1
2017-Mar-20 16:24N 47°43' W 003°21'0 0.0
2017-Mar-20 15:31N 47°43' W 003°21'1 1.1
2017-Mar-20 14:32N 47°44' W 003°22'0 0.0
2017-Mar-20 13:32N 47°44' W 003°22'0 0.5
2017-Mar-20 12:33N 47°43' W 003°22'1 0.6
2017-Mar-20 11:32N 47°43' W 003°21'0 0.0
2017-Mar-20 10:29N 47°43' W 003°21'  
2017-Mar-17 13:13N 47°43' W 003°21'2 2.9
2017-Mar-17 12:33N 47°45' W 003°21'8 8.2
2017-Mar-17 11:33N 47°37' W 003°16'4 4.2
2017-Mar-17 10:33N 47°35' W 003°10'1 1.4
2017-Mar-17 09:32N 47°37' W 003°12'0 0.1
2017-Mar-17 08:33N 47°37' W 003°12'1 1.1
2017-Mar-17 07:33N 47°36' W 003°11'3 3.1
2017-Mar-17 06:33N 47°36' W 003°15'7 0.6
2017-Mar-16 18:04N 47°43' W 003°21'1 1.9
2017-Mar-16 17:31N 47°44' W 003°22'0 0.3
2017-Mar-16 16:33N 47°43' W 003°22'7 6.8
2017-Mar-16 15:33N 47°37' W 003°19'5 5.0
2017-Mar-16 14:33N 47°36' W 003°11'0 0.5
2017-Mar-16 13:33N 47°37' W 003°12'2 2.1
2017-Mar-16 12:33N 47°35' W 003°12'7 7.4
2017-Mar-16 11:33N 47°40' W 003°20'4 4.3
2017-Mar-16 10:33N 47°44' W 003°21'5 4.9
2017-Mar-16 09:32N 47°39' W 003°22'0 0.1
2017-Mar-16 08:33N 47°39' W 003°22'1 0.9
2017-Mar-16 07:33N 47°39' W 003°21'1 1.4
2017-Mar-16 06:32N 47°37' W 003°20'6 6.0
2017-Mar-16 05:33N 47°43' W 003°22'0 0.1
2017-Mar-16 04:33N 47°43' W 003°22'3 0.2
2017-Mar-15 14:31N 47°40' W 003°20'0 0.0
2017-Mar-15 13:32N 47°40' W 003°20'0 0.1
2017-Mar-15 12:26N 47°40' W 003°20'1 1.0
2017-Mar-15 11:26N 47°39' W 003°21'1 0.9
2017-Mar-15 10:33N 47°40' W 003°21'1 1.0
2017-Mar-15 09:33N 47°41' W 003°20'1 0.8
2017-Mar-15 08:31N 47°40' W 003°20'1 1.1
2017-Mar-15 07:32N 47°40' W 003°22'3 0.2
2017-Mar-14 19:31N 47°43' W 003°21'2 2.5
2017-Mar-14 18:31N 47°40' W 003°20'0 0.1
2017-Mar-14 17:31N 47°40' W 003°20'3 2.9
2017-Mar-14 16:33N 47°38' W 003°17'  
Track history (hours):
 
Tides and Currents Weather Stations Pressure Air Temp Water Temp Dewpoint Dewpoint Depression Visibility Wind Speed Wind Dir Waves Ship Positions

Esquina

Last reported at 2017-Mar-23 11:33 UTC. Time now 2017-Mar-23 12:17 UTC.
Position N 47°40' W 003°20'.

Type: Other ship. MMSI: 235080801.

Date/timePositionNaut miles runAvg speedWind from/ knotsBaromVisibWave heightAir tempDewpointWater temp
2017-Mar-23 11:33N 47°40' W 003°20'3 0.1
2017-Mar-22 17:07N 47°43' W 003°21'2 3.5
2017-Mar-22 16:33N 47°45' W 003°21'3 2.8
2017-Mar-22 15:33N 47°42' W 003°22'6 6.2
2017-Mar-22 14:33N 47°36' W 003°20'8 7.6
2017-Mar-22 13:32N 47°44' W 003°22'7 6.7
2017-Mar-22 12:33N 47°37' W 003°20'5 5.3
2017-Mar-22 11:33N 47°42' W 003°22'10 9.8
2017-Mar-22 10:33N 47°35' W 003°13'2 1.8
2017-Mar-22 09:31N 47°37' W 003°12'0 0.0
2017-Mar-22 08:31N 47°37' W 003°12'2 1.7
2017-Mar-22 07:33N 47°35' W 003°11'7 7.3
2017-Mar-22 06:33N 47°39' W 003°20'4 0.3
2017-Mar-21 16:33N 47°43' W 003°22'1110.9
2017-Mar-21 15:33N 47°34' W 003°12'2 2.1
2017-Mar-21 14:32N 47°37' W 003°12'0 0.0
2017-Mar-21 13:33N 47°37' W 003°12'0 0.1
2017-Mar-21 12:32N 47°37' W 003°12'1 0.8
2017-Mar-21 11:33N 47°36' W 003°12'2 2.1
2017-Mar-21 10:33N 47°38' W 003°13'3 2.7
2017-Mar-21 09:33N 47°35' W 003°14'4 3.7
2017-Mar-21 08:33N 47°36' W 003°19'3 2.7
2017-Mar-21 07:33N 47°38' W 003°21'6 6.3
2017-Mar-21 06:33N 47°45' W 003°21'2 0.1
2017-Mar-20 16:24N 47°43' W 003°21'0 0.0
2017-Mar-20 15:31N 47°43' W 003°21'1 1.1
2017-Mar-20 14:32N 47°44' W 003°22'0 0.0
2017-Mar-20 13:32N 47°44' W 003°22'0 0.5
2017-Mar-20 12:33N 47°43' W 003°22'1 0.6
2017-Mar-20 11:32N 47°43' W 003°21'0 0.0
2017-Mar-20 10:29N 47°43' W 003°21'  
2017-Mar-17 13:13N 47°43' W 003°21'2 2.9
2017-Mar-17 12:33N 47°45' W 003°21'8 8.2
2017-Mar-17 11:33N 47°37' W 003°16'4 4.2
2017-Mar-17 10:33N 47°35' W 003°10'1 1.4
2017-Mar-17 09:32N 47°37' W 003°12'0 0.1
2017-Mar-17 08:33N 47°37' W 003°12'1 1.1
2017-Mar-17 07:33N 47°36' W 003°11'3 3.1
2017-Mar-17 06:33N 47°36' W 003°15'7 0.6
2017-Mar-16 18:04N 47°43' W 003°21'1 1.9
2017-Mar-16 17:31N 47°44' W 003°22'0 0.3
2017-Mar-16 16:33N 47°43' W 003°22'7 6.8
2017-Mar-16 15:33N 47°37' W 003°19'5 5.0
2017-Mar-16 14:33N 47°36' W 003°11'0 0.5
2017-Mar-16 13:33N 47°37' W 003°12'2 2.1
2017-Mar-16 12:33N 47°35' W 003°12'7 7.4
2017-Mar-16 11:33N 47°40' W 003°20'4 4.3
2017-Mar-16 10:33N 47°44' W 003°21'5 4.9
2017-Mar-16 09:32N 47°39' W 003°22'0 0.1
2017-Mar-16 08:33N 47°39' W 003°22'1 0.9
2017-Mar-16 07:33N 47°39' W 003°21'1 1.4
2017-Mar-16 06:32N 47°37' W 003°20'6 6.0
2017-Mar-16 05:33N 47°43' W 003°22'0 0.1
2017-Mar-16 04:33N 47°43' W 003°22'3 0.2
2017-Mar-15 14:31N 47°40' W 003°20'0 0.0
2017-Mar-15 13:32N 47°40' W 003°20'0 0.1
2017-Mar-15 12:26N 47°40' W 003°20'1 1.0
2017-Mar-15 11:26N 47°39' W 003°21'1 0.9
2017-Mar-15 10:33N 47°40' W 003°21'1 1.0
2017-Mar-15 09:33N 47°41' W 003°20'1 0.8
2017-Mar-15 08:31N 47°40' W 003°20'1 1.1
2017-Mar-15 07:32N 47°40' W 003°22'3 0.2
2017-Mar-14 19:31N 47°43' W 003°21'2 2.5
2017-Mar-14 18:31N 47°40' W 003°20'0 0.1
2017-Mar-14 17:31N 47°40' W 003°20'3 2.9
2017-Mar-14 16:33N 47°38' W 003°17'  

Dump ship's entire track history